Larose, Louisiana
Current Conditions -  °F | °C
As of 7:50 AM on Monday 24 Nov 2014 (Local Time) from KHUM Reporting Station
Haze Haze  
Wind Chill: 66°   Ceiling: Unl
Heat Index: 66°   Visibility: 6mi
Dew Point: 64°   Wind: 5mph
Humidity: 94%   Direction: 220°SW
Pressure: 29.86"   Gusts: NA
Location:  29.57°N, 90.38°W
Report Text: KHUM 241350Z 22004KT 6SM BR SCT080 19/18 A2986 RMK RY12/30 CLOSED VA RY 18 IN USE ATIS L RC
Loading
Personal Weather Stations






























Interactive Weather Map New forecast layout! Learn more

10-Day Weather Forecast

Advertisements
Track Severe Weather on mobile